Terminal Aerodrome Forecast
Issued by NWS Chicago, IL

Home | Current Version | Previous Version | Graphics & Text | Print | Product List | Glossary On
Versions: 1 2 3 4 5 6 7 8 9 10 11 12 13 14 15 16 17 18 19 20 21 22 23 24 25 26 27 28 29 30 31 32 33 34
000
FTUS43 KLOT 251800 AAA
TAFRFD
TAF AMD
KRFD 251854Z 2519/2618 05005KT P6SM OVC060
     FM252000 04007KT 1 1/2SM -SN BR SCT015 BKN025
     FM252100 03009KT 1 1/2SM -SN BR SCT010 BKN014 OVC020
      TEMPO 2522/2602 1SM -SN BR OVC012
     FM260700 02011KT 6SM -SN SCT014 OVC020
     FM261200 01011KT P6SM BKN035=

USA.gov is the U.S. government's official web portal to all federal, state and local government web resources and services.